Terminal Aerodrome Forecast
Issued by NWS

Home | Current Version | Previous Version | Text Only | Print | Product List | Glossary On
Versions: 1 2 3 4 5 6 7 8 9 10 11 12 13 14 15 16 17 18 19 20 21 22 23 24 25
000
FTUS43 KICT 170520
TAFCNU
TAF
KCNU 170520Z 1706/1806 05006KT P6SM BKN200
     FM171500 10005KT P6SM SCT060 BKN200
     FM180300 10006KT 5SM BR OVC015=

USA.gov is the U.S. government's official web portal to all federal, state and local government web resources and services.